Time;durP1;ratioP1;P1;durP2;ratioP2;P2;SDS_P1;SDS_P2;PMS_P1;PMS_P2;Temp;Humidity;BMP_temperature;BMP_pressure;BME280_temperature;BME280_humidity;BME280_pressure;Samples;Min_cycle;Max_cycle;Signal;HPM_P1;HPM_P2
2023/12/16 00:00:32;;;;;;;8.60;4.03;;;;;;;5.91;56.30;100120.50;5045601;28;20036;-64
2023/12/16 00:03:00;;;;;;;9.63;3.85;;;;;;;5.81;55.22;100121.03;5035655;28;20029;-65
2023/12/16 00:05:25;;;;;;;10.40;5.38;;;;;;;5.54;56.92;100111.97;5030358;28;20037;-64
2023/12/16 00:07:53;;;;;;;10.43;4.25;;;;;;;5.46;57.04;100105.53;5024616;28;20074;-64
2023/12/16 00:10:18;;;;;;;8.63;4.20;;;;;;;5.69;57.13;100112.97;5036744;28;20021;-64
2023/12/16 00:12:44;;;;;;;8.32;3.95;;;;;;;5.73;56.94;100093.84;5047515;28;20064;-63
2023/12/16 00:15:11;;;;;;;9.82;4.35;;;;;;;5.64;56.40;100096.91;5031047;28;20108;-64
2023/12/16 00:17:37;;;;;;;7.38;3.35;;;;;;;5.68;55.90;100108.72;5030549;28;20036;-64
2023/12/16 00:20:03;;;;;;;7.72;3.40;;;;;;;5.65;55.59;100116.63;5045572;28;20033;-65
2023/12/16 00:22:29;;;;;;;7.07;3.15;;;;;;;5.51;56.03;100119.91;5032598;28;20056;-63
2023/12/16 00:24:55;;;;;;;8.02;3.42;;;;;;;4.98;55.92;100069.16;5037613;28;20045;-62
2023/12/16 00:27:25;;;;;;;5.68;2.65;;;;;;;5.05;55.70;100067.97;5049734;28;20028;-64
2023/12/16 00:29:53;;;;;;;6.78;3.08;;;;;;;5.47;56.10;100128.69;5035766;28;20078;-63
2023/12/16 00:32:21;;;;;;;6.97;3.00;;;;;;;5.42;56.79;100125.50;5034774;28;20029;-64
2023/12/16 00:34:48;;;;;;;6.53;2.95;;;;;;;5.53;57.10;100122.38;5040584;28;20692;-64
2023/12/16 00:37:14;;;;;;;7.22;3.00;;;;;;;5.56;57.02;100117.06;5035293;28;20040;-64
2023/12/16 00:39:39;;;;;;;7.05;2.58;;;;;;;5.63;56.97;100126.19;5043160;28;20426;-64
2023/12/16 00:42:05;;;;;;;5.60;2.50;;;;;;;5.61;56.98;100114.28;5050109;28;20044;-64
2023/12/16 00:44:31;;;;;;;5.30;2.45;;;;;;;5.47;56.19;100095.13;5033254;28;20024;-64
2023/12/16 00:47:00;;;;;;;7.22;2.40;;;;;;;5.64;56.79;100122.72;5041904;28;20033;-64
2023/12/16 00:49:25;;;;;;;5.70;2.40;;;;;;;5.59;57.52;100125.50;5031827;28;20066;-64
2023/12/16 00:51:51;;;;;;;5.88;2.85;;;;;;;5.50;57.32;100125.94;5033299;28;20033;-64
2023/12/16 00:54:16;;;;;;;6.90;2.70;;;;;;;5.63;57.85;100135.69;5048052;28;20764;-64
2023/12/16 00:56:42;;;;;;;6.20;2.70;;;;;;;5.38;57.63;100106.75;5034608;28;20070;-65
2023/12/16 00:59:07;;;;;;;7.05;2.72;;;;;;;5.66;58.47;100143.25;5036197;28;21120;-64
2023/12/16 01:01:33;;;;;;;6.15;2.80;;;;;;;5.55;57.84;100143.81;5033997;28;20739;-64
2023/12/16 01:03:58;;;;;;;7.40;3.20;;;;;;;5.48;58.17;100145.84;5043837;28;20033;-65
2023/12/16 01:06:24;;;;;;;6.75;2.88;;;;;;;5.43;57.85;100129.75;5043341;28;20046;-64
2023/12/16 01:08:49;;;;;;;6.85;3.53;;;;;;;5.26;56.98;100112.50;5042348;28;20032;-63
2023/12/16 01:11:14;;;;;;;7.40;2.85;;;;;;;5.56;59.75;100155.78;5044964;28;20111;-64
2023/12/16 01:13:42;;;;;;;7.93;3.28;;;;;;;5.43;58.76;100131.50;5047169;28;20799;-64
2023/12/16 01:16:08;;;;;;;8.18;3.38;;;;;;;5.57;58.91;100170.38;5032152;28;20039;-63
2023/12/16 01:18:38;;;;;;;6.38;2.80;;;;;;;5.59;59.20;100190.00;5033214;28;20025;-64
2023/12/16 01:21:08;;;;;;;7.03;3.03;;;;;;;5.57;58.89;100189.25;5031876;28;20039;-63
2023/12/16 01:23:34;;;;;;;6.40;3.22;;;;;;;5.49;58.83;100191.34;5040926;28;20102;-64
2023/12/16 01:26:02;;;;;;;7.97;3.08;;;;;;;5.35;60.33;100178.31;5050458;28;20021;-64
2023/12/16 01:28:30;;;;;;;9.35;3.63;;;;;;;5.45;59.66;100173.53;5044153;28;20024;-65
2023/12/16 01:30:56;;;;;;;7.85;3.78;;;;;;;5.42;59.71;100177.09;5045279;28;20025;-64
2023/12/16 01:33:21;;;;;;;9.27;4.20;;;;;;;5.26;60.33;100178.75;5031003;28;20029;-64
2023/12/16 01:35:49;;;;;;;10.25;4.20;;;;;;;5.29;60.72;100181.97;5035840;28;20059;-64
2023/12/16 01:38:17;;;;;;;8.98;4.30;;;;;;;5.27;62.01;100177.81;5029158;28;21320;-64
2023/12/16 01:40:42;;;;;;;9.20;3.45;;;;;;;5.17;62.12;100175.69;5028880;28;20021;-64
2023/12/16 01:43:12;;;;;;;8.85;3.45;;;;;;;5.20;62.08;100172.97;5029760;28;20029;-64
2023/12/16 01:45:38;;;;;;;8.38;3.47;;;;;;;5.28;61.33;100189.81;5047814;28;20059;-64
2023/12/16 01:48:06;;;;;;;6.70;3.00;;;;;;;5.29;61.61;100207.78;5048296;28;20487;-63
2023/12/16 01:50:35;;;;;;;7.75;3.40;;;;;;;5.31;61.85;100213.72;5027882;28;20071;-64
2023/12/16 01:53:01;;;;;;;10.73;2.95;;;;;;;5.14;62.71;100196.44;5042382;28;20377;-64
2023/12/16 01:55:27;;;;;;;7.90;3.53;;;;;;;5.20;63.33;100203.03;5047293;28;20126;-64
2023/12/16 01:57:55;;;;;;;8.23;3.25;;;;;;;5.24;63.84;100206.31;5040034;28;20029;-64
2023/12/16 02:00:23;;;;;;;7.15;3.33;;;;;;;5.20;63.12;100214.22;5050204;28;20032;-64
2023/12/16 02:02:49;;;;;;;8.32;3.30;;;;;;;5.07;62.64;100220.00;5040663;28;20116;-63
2023/12/16 02:05:14;;;;;;;9.23;3.45;;;;;;;4.76;63.89;100180.16;5035404;28;20038;-63
2023/12/16 02:07:40;;;;;;;8.55;3.60;;;;;;;5.10;64.37;100225.03;5037919;28;20086;-64
2023/12/16 02:10:10;;;;;;;7.65;3.40;;;;;;;4.99;64.90;100228.91;5025809;28;20032;-64
2023/12/16 02:12:36;;;;;;;7.57;3.28;;;;;;;4.91;64.39;100230.16;5039229;28;20035;-65
2023/12/16 02:15:05;;;;;;;6.75;3.20;;;;;;;4.87;64.85;100239.78;5041704;28;20037;-62
2023/12/16 02:17:32;;;;;;;9.35;3.60;;;;;;;4.63;64.83;100226.25;5030444;28;20450;-63
2023/12/16 02:20:03;;;;;;;9.13;3.72;;;;;;;4.55;66.15;100229.16;5030479;28;20071;-64
2023/12/16 02:22:28;;;;;;;8.52;3.90;;;;;;;4.57;67.14;100232.50;5037927;28;20525;-65
2023/12/16 02:24:57;;;;;;;7.50;3.25;;;;;;;4.28;66.88;100184.81;5029832;28;20036;-63
2023/12/16 02:27:22;;;;;;;10.30;3.80;;;;;;;4.63;66.64;100229.66;5035781;28;20029;-64
2023/12/16 02:29:50;;;;;;;11.23;4.40;;;;;;;4.56;66.38;100225.69;5024149;28;20041;-65
2023/12/16 02:32:17;;;;;;;8.95;3.95;;;;;;;4.66;66.87;100220.13;5034907;28;20086;-65
2023/12/16 02:34:43;;;;;;;10.15;4.13;;;;;;;4.73;67.04;100224.94;5050940;28;20404;-64
2023/12/16 02:37:08;;;;;;;14.77;7.28;;;;;;;4.62;66.82;100219.44;5024201;28;20025;-64
2023/12/16 02:39:37;;;;;;;10.38;5.70;;;;;;;4.70;67.64;100231.97;5030593;28;20031;-64
2023/12/16 02:42:02;;;;;;;12.25;4.75;;;;;;;4.56;66.88;100199.06;5042726;28;20047;-64
2023/12/16 02:44:30;;;;;;;11.82;4.82;;;;;;;4.77;68.90;100244.50;5044617;28;20108;-64
2023/12/16 02:46:55;;;;;;;9.45;4.53;;;;;;;4.34;67.52;100184.56;5028532;28;20538;-63
2023/12/16 02:49:21;;;;;;;8.98;3.80;;;;;;;4.19;68.06;100191.19;5034128;28;20029;-64
2023/12/16 02:51:46;;;;;;;10.32;4.30;;;;;;;4.52;68.32;100242.16;5028269;28;20163;-64
2023/12/16 02:54:14;;;;;;;8.85;4.18;;;;;;;4.56;68.83;100245.44;5030039;28;20044;-63
2023/12/16 02:56:39;;;;;;;10.55;4.82;;;;;;;4.53;69.54;100240.44;5030068;28;20067;-64
2023/12/16 02:59:07;;;;;;;11.25;4.75;;;;;;;4.54;69.90;100235.19;5051584;28;20036;-63
2023/12/16 03:01:35;;;;;;;13.05;5.07;;;;;;;4.54;69.71;100234.38;5035626;28;20062;-64
2023/12/16 03:04:00;;;;;;;9.95;4.45;;;;;;;4.41;70.52;100213.47;5044499;28;20638;-64
2023/12/16 03:06:26;;;;;;;10.07;4.72;;;;;;;4.45;69.72;100230.44;5035113;28;20033;-63
2023/12/16 03:08:54;;;;;;;11.50;4.72;;;;;;;4.59;69.40;100235.03;5035921;28;20028;-65
2023/12/16 03:11:19;;;;;;;10.60;4.63;;;;;;;4.66;69.19;100240.75;5033348;28;20039;-64
2023/12/16 03:13:47;;;;;;;10.15;4.03;;;;;;;4.63;70.00;100239.94;5037154;28;20036;-64
2023/12/16 03:16:13;;;;;;;9.18;3.50;;;;;;;4.57;69.62;100239.41;5045350;28;20024;-63
2023/12/16 03:18:39;;;;;;;7.15;3.90;;;;;;;4.48;70.02;100240.63;5032747;28;20032;-64
2023/12/16 03:21:07;;;;;;;7.13;3.50;;;;;;;4.41;70.49;100241.78;5028578;28;20037;-63
2023/12/16 03:23:35;;;;;;;7.15;3.40;;;;;;;4.13;70.19;100200.94;5051929;28;20094;-64
2023/12/16 03:26:03;;;;;;;7.57;3.45;;;;;;;4.29;70.94;100244.88;5049186;28;20480;-62
2023/12/16 03:28:28;;;;;;;7.47;3.22;;;;;;;4.04;70.97;100181.56;5049411;28;20032;-64
2023/12/16 03:30:56;;;;;;;7.43;3.10;;;;;;;4.37;70.17;100230.78;5038478;28;20036;-63
2023/12/16 03:33:22;;;;;;;7.25;3.50;;;;;;;4.42;70.90;100246.06;5032035;28;20025;-64
2023/12/16 03:35:48;;;;;;;9.32;3.72;;;;;;;4.23;72.06;100238.25;5033331;28;21075;-62
2023/12/16 03:38:13;;;;;;;8.30;3.70;;;;;;;4.21;73.08;100247.78;5032275;28;20044;-64
2023/12/16 03:40:38;;;;;;;10.23;4.30;;;;;;;4.22;73.16;100252.06;5032134;28;20040;-64
2023/12/16 03:43:04;;;;;;;13.55;5.13;;;;;;;4.18;73.69;100255.63;5040817;28;20048;-63
2023/12/16 03:45:29;;;;;;;8.80;3.83;;;;;;;3.75;73.72;100223.94;5045222;28;20070;-63
2023/12/16 03:47:55;;;;;;;8.20;3.80;;;;;;;4.03;74.40;100270.84;5039591;28;20029;-65
2023/12/16 03:50:20;;;;;;;7.60;3.38;;;;;;;3.56;74.35;100263.28;5028749;28;20112;-65
2023/12/16 03:52:45;;;;;;;7.78;3.38;;;;;;;3.54;76.22;100230.78;5046494;28;20037;-64
2023/12/16 03:55:13;;;;;;;7.72;3.42;;;;;;;3.89;75.89;100260.25;5033717;28;20056;-64
2023/12/16 03:57:39;;;;;;;8.75;3.97;;;;;;;3.95;75.97;100266.88;5033388;28;20032;-62
2023/12/16 04:00:05;;;;;;;7.93;3.95;;;;;;;3.68;74.98;100210.47;5047212;28;20071;-63
2023/12/16 04:02:30;;;;;;;9.75;3.97;;;;;;;3.94;75.67;100244.63;5029310;28;20021;-64
2023/12/16 04:04:56;;;;;;;12.98;4.88;;;;;;;3.76;74.50;100220.47;5034806;28;20402;-63
2023/12/16 04:07:24;;;;;;;11.30;4.50;;;;;;;4.00;75.10;100258.06;5035410;28;20029;-63
2023/12/16 04:09:49;;;;;;;9.13;4.40;;;;;;;3.91;75.48;100263.59;5037407;28;20093;-63
2023/12/16 04:12:17;;;;;;;7.00;3.50;;;;;;;3.91;74.43;100279.03;5044296;28;20032;-63
2023/12/16 04:14:46;;;;;;;7.78;3.10;;;;;;;3.88;74.75;100283.47;5040079;28;20566;-63
2023/12/16 04:17:11;;;;;;;7.25;2.88;;;;;;;3.68;74.65;100255.97;5044750;28;20032;-64
2023/12/16 04:19:37;;;;;;;8.75;3.30;;;;;;;3.42;76.32;100243.22;5034965;28;20026;-64
2023/12/16 04:22:02;;;;;;;6.45;3.40;;;;;;;3.75;76.17;100296.81;5028118;28;20029;-63
2023/12/16 04:24:28;;;;;;;7.68;3.40;;;;;;;3.69;76.84;100301.34;5048651;28;20037;-64
2023/12/16 04:26:58;;;;;;;6.60;2.95;;;;;;;3.81;75.77;100300.88;5045715;28;20020;-64
2023/12/16 04:29:23;;;;;;;6.68;3.50;;;;;;;3.44;75.34;100250.88;5055168;28;20052;-64
2023/12/16 04:31:51;;;;;;;7.70;3.13;;;;;;;3.73;75.69;100300.38;5029973;28;20025;-63
2023/12/16 04:34:16;;;;;;;9.13;3.60;;;;;;;3.86;75.53;100304.13;5041670;28;20116;-64
2023/12/16 04:36:46;;;;;;;6.95;3.33;;;;;;;3.84;75.98;100309.31;5033020;28;20028;-64
2023/12/16 04:39:11;;;;;;;8.75;3.72;;;;;;;3.49;76.37;100264.41;5043013;28;20577;-64
2023/12/16 04:41:36;;;;;;;9.90;4.25;;;;;;;3.65;76.45;100316.94;5045902;28;20020;-64
2023/12/16 04:44:05;;;;;;;10.43;4.18;;;;;;;3.55;78.04;100328.44;5031997;28;20029;-64
2023/12/16 04:46:30;;;;;;;9.65;4.18;;;;;;;3.61;80.17;100319.66;5034513;28;20051;-64
2023/12/16 04:48:57;;;;;;;7.03;3.40;;;;;;;3.79;80.48;100313.81;5030168;28;20063;-63
2023/12/16 04:51:23;;;;;;;7.32;3.45;;;;;;;3.88;79.39;100311.78;5047715;28;20851;-64
2023/12/16 04:53:51;;;;;;;7.53;3.17;;;;;;;3.92;79.24;100328.78;5031436;28;20143;-64
2023/12/16 04:56:16;;;;;;;6.78;3.42;;;;;;;4.01;80.05;100331.81;5034770;28;20029;-64
2023/12/16 04:58:41;;;;;;;7.85;3.50;;;;;;;4.04;79.67;100342.00;5040971;28;20535;-64
2023/12/16 05:01:07;;;;;;;7.50;3.70;;;;;;;4.12;80.70;100338.28;5031149;28;20056;-64
2023/12/16 05:03:32;;;;;;;6.68;3.20;;;;;;;3.91;83.27;100289.34;5024237;28;20141;-64
2023/12/16 05:05:58;;;;;;;8.02;3.20;;;;;;;4.26;83.46;100338.56;5043926;28;20062;-62
2023/12/16 05:08:26;;;;;;;6.85;2.97;;;;;;;4.22;82.20;100331.88;5038687;28;20024;-64
2023/12/16 05:10:51;;;;;;;7.28;3.28;;;;;;;4.30;83.81;100323.81;5030854;28;20147;-63
2023/12/16 05:13:19;;;;;;;6.13;3.00;;;;;;;4.39;83.63;100331.19;5053941;28;20635;-64
2023/12/16 05:15:44;;;;;;;8.02;2.83;;;;;;;4.43;84.61;100328.44;5031960;28;20044;-63
2023/12/16 05:18:12;;;;;;;5.95;2.63;;;;;;;4.43;84.36;100337.88;5039615;28;20514;-63
2023/12/16 05:20:40;;;;;;;5.57;2.42;;;;;;;4.30;84.49;100328.97;5029040;28;20052;-64
2023/12/16 05:23:05;;;;;;;8.05;3.00;;;;;;;4.06;85.35;100280.16;5047319;28;20040;-62
2023/12/16 05:25:30;;;;;;;7.63;2.72;;;;;;;4.51;85.43;100338.41;5031261;28;20013;-63
2023/12/16 05:27:56;;;;;;;6.13;2.67;;;;;;;4.53;85.77;100346.91;5047284;28;20573;-64
2023/12/16 05:30:24;;;;;;;6.10;2.78;;;;;;;4.50;83.29;100344.44;5035055;28;20146;-64
2023/12/16 05:32:50;;;;;;;6.45;2.85;;;;;;;4.48;83.30;100351.41;5043176;28;20870;-63
2023/12/16 05:35:20;;;;;;;7.35;3.38;;;;;;;4.11;84.94;100318.59;5034734;28;20025;-63
2023/12/16 05:37:51;;;;;;;5.78;2.78;;;;;;;4.45;84.28;100359.25;5046719;28;20021;-63
2023/12/16 05:40:16;;;;;;;6.55;3.42;;;;;;;4.16;83.88;100316.66;5050536;28;20659;-64
2023/12/16 05:42:42;;;;;;;6.55;2.95;;;;;;;4.41;83.72;100371.41;5035891;28;20035;-65
2023/12/16 05:45:07;;;;;;;6.68;2.67;;;;;;;4.29;84.65;100371.94;5043710;28;20143;-64
2023/12/16 05:47:34;;;;;;;7.20;3.33;;;;;;;4.29;83.92;100377.06;5050308;28;20100;-65
2023/12/16 05:50:02;;;;;;;7.05;3.30;;;;;;;4.17;83.81;100385.28;5034011;28;20049;-65
2023/12/16 05:52:27;;;;;;;6.53;2.67;;;;;;;4.15;84.01;100380.19;5049864;28;20187;-65
2023/12/16 05:54:53;;;;;;;7.00;3.17;;;;;;;4.20;84.81;100390.31;5032310;28;20564;-64
2023/12/16 05:57:20;;;;;;;6.80;2.92;;;;;;;4.19;85.15;100376.59;5042853;28;20025;-64
2023/12/16 05:59:46;;;;;;;6.70;2.97;;;;;;;3.94;85.32;100335.56;5049296;28;20143;-64
2023/12/16 06:02:11;;;;;;;6.95;2.95;;;;;;;4.14;85.84;100385.41;5029886;28;20016;-64
2023/12/16 06:04:42;;;;;;;6.93;3.10;;;;;;;3.88;85.63;100343.50;5034312;28;20109;-66
2023/12/16 06:07:07;;;;;;;8.60;2.80;;;;;;;4.16;86.96;100391.31;5051646;28;20236;-65
2023/12/16 06:09:33;;;;;;;6.28;2.92;;;;;;;4.13;87.27;100382.00;5050645;28;21350;-63
2023/12/16 06:12:00;;;;;;;6.50;3.17;;;;;;;3.82;86.93;100336.03;5032711;28;20032;-65
2023/12/16 06:14:26;;;;;;;6.22;3.17;;;;;;;4.12;87.45;100393.19;5036929;28;20491;-65
2023/12/16 06:16:51;;;;;;;5.65;2.45;;;;;;;4.14;88.82;100393.13;5036352;28;20039;-64
2023/12/16 06:19:19;;;;;;;6.38;2.72;;;;;;;4.30;88.27;100383.88;5048583;28;20039;-65
2023/12/16 06:21:44;;;;;;;6.15;2.90;;;;;;;4.24;87.42;100387.53;5034849;28;20031;-64
2023/12/16 06:24:12;;;;;;;6.15;2.50;;;;;;;4.31;87.16;100403.59;5040281;28;20400;-65
2023/12/16 06:26:37;;;;;;;5.97;2.72;;;;;;;4.02;86.92;100348.94;5049939;28;20025;-65
2023/12/16 06:29:02;;;;;;;6.80;2.88;;;;;;;4.32;86.92;100399.28;5038617;28;20388;-65
2023/12/16 06:31:28;;;;;;;6.45;2.90;;;;;;;4.35;87.25;100399.16;5027634;28;20600;-64
2023/12/16 06:33:56;;;;;;;7.03;3.03;;;;;;;4.36;88.14;100401.69;5032998;28;20021;-64
2023/12/16 06:36:26;;;;;;;6.55;2.70;;;;;;;4.38;87.76;100404.19;5032860;28;20319;-65
2023/12/16 06:38:51;;;;;;;6.78;3.28;;;;;;;4.42;87.56;100413.47;5047753;28;20444;-65
2023/12/16 06:41:17;;;;;;;5.88;2.80;;;;;;;4.36;87.71;100409.41;5044401;28;20445;-65
2023/12/16 06:43:47;;;;;;;5.53;2.60;;;;;;;4.35;87.86;100414.63;5046310;28;20029;-64
2023/12/16 06:46:12;;;;;;;6.70;2.55;;;;;;;4.37;88.01;100413.66;5047269;28;20028;-63
2023/12/16 06:48:38;;;;;;;6.00;2.92;;;;;;;4.47;88.17;100424.41;5044611;28;20068;-63
2023/12/16 06:51:04;;;;;;;5.82;2.85;;;;;;;4.46;88.19;100425.34;5033386;28;20043;-64
2023/12/16 06:53:30;;;;;;;8.23;3.00;;;;;;;4.22;88.25;100383.38;5031398;28;20060;-63
2023/12/16 06:55:58;;;;;;;6.63;3.40;;;;;;;4.49;87.70;100422.66;5053910;28;20061;-62
2023/12/16 06:58:24;;;;;;;6.20;2.92;;;;;;;4.41;87.02;100425.50;5048531;28;20043;-64
2023/12/16 07:00:49;;;;;;;6.30;2.72;;;;;;;4.40;87.04;100435.88;5037338;28;20041;-62
2023/12/16 07:03:14;;;;;;;5.85;2.72;;;;;;;4.29;88.73;100420.84;5048605;28;20025;-64
2023/12/16 07:05:42;;;;;;;7.70;2.83;;;;;;;4.37;89.17;100431.69;5034927;28;20032;-64
2023/12/16 07:08:08;;;;;;;8.35;3.20;;;;;;;4.38;88.57;100435.09;5036465;28;20025;-64
2023/12/16 07:10:33;;;;;;;6.75;3.10;;;;;;;4.08;89.37;100401.94;5048642;28;20797;-63
2023/12/16 07:13:01;;;;;;;6.63;3.22;;;;;;;4.03;88.31;100398.69;5042917;28;20142;-64
2023/12/16 07:15:26;;;;;;;6.38;3.28;;;;;;;4.23;87.97;100450.25;5023385;28;20035;-63
2023/12/16 07:17:56;;;;;;;7.05;3.20;;;;;;;4.19;88.85;100443.53;5038211;28;20029;-63
2023/12/16 07:20:22;;;;;;;6.10;3.00;;;;;;;4.27;88.49;100442.41;5051188;28;20033;-63
2023/12/16 07:22:47;;;;;;;5.65;2.80;;;;;;;4.12;89.00;100436.13;5047950;28;20122;-63
2023/12/16 07:25:15;;;;;;;7.32;3.47;;;;;;;4.06;88.42;100441.50;5053567;28;20033;-64
2023/12/16 07:27:40;;;;;;;7.65;3.83;;;;;;;3.90;87.96;100400.88;5047162;28;20075;-64
2023/12/16 07:30:06;;;;;;;7.75;3.90;;;;;;;4.09;87.44;100443.94;5051294;28;20174;-64
2023/12/16 07:32:31;;;;;;;7.43;3.85;;;;;;;3.87;87.44;100402.75;5032943;28;20035;-65
2023/12/16 07:35:00;;;;;;;9.23;3.95;;;;;;;4.08;86.82;100448.25;5053659;28;20330;-64
2023/12/16 07:37:26;;;;;;;8.43;4.00;;;;;;;4.03;87.89;100452.75;5052302;28;20035;-65
2023/12/16 07:39:51;;;;;;;8.02;4.38;;;;;;;4.07;88.29;100463.75;5053655;28;20029;-64
2023/12/16 07:42:17;;;;;;;7.90;3.70;;;;;;;4.07;87.60;100462.06;5030820;28;20028;-64
2023/12/16 07:44:42;;;;;;;6.45;3.50;;;;;;;3.98;87.38;100465.81;5038591;28;20114;-65
2023/12/16 07:47:08;;;;;;;9.05;4.00;;;;;;;3.87;86.85;100464.50;5034882;28;20468;-64
2023/12/16 07:49:33;;;;;;;7.30;3.65;;;;;;;3.82;87.22;100462.94;5047498;28;20029;-64
2023/12/16 07:52:00;;;;;;;7.20;3.70;;;;;;;3.92;86.95;100481.44;5035760;28;20507;-64
2023/12/16 07:54:28;;;;;;;8.57;3.45;;;;;;;3.90;87.80;100475.53;5043869;28;20586;-65
2023/12/16 07:56:54;;;;;;;8.82;3.80;;;;;;;3.88;87.94;100472.19;5034716;28;20141;-64
2023/12/16 07:59:19;;;;;;;7.97;3.63;;;;;;;3.65;87.50;100447.28;5027587;28;20033;-65
2023/12/16 08:01:49;;;;;;;7.63;3.80;;;;;;;3.83;86.66;100492.09;5052856;28;20025;-65
2023/12/16 08:04:17;;;;;;;9.00;3.92;;;;;;;3.94;86.60;100497.72;5042503;28;20060;-64
2023/12/16 08:06:42;;;;;;;7.70;4.03;;;;;;;3.99;86.26;100500.09;5049836;28;20020;-64
2023/12/16 08:09:13;;;;;;;8.98;3.78;;;;;;;4.02;86.94;100497.41;5037432;28;20029;-64
2023/12/16 08:11:41;;;;;;;8.15;4.57;;;;;;;3.98;86.39;100494.13;5026936;28;20060;-63
2023/12/16 08:14:08;;;;;;;8.90;4.72;;;;;;;3.77;86.35;100459.69;5033139;28;20158;-64
2023/12/16 08:16:36;;;;;;;9.90;4.47;;;;;;;4.02;86.16;100507.72;5046736;28;20055;-63
2023/12/16 08:19:01;;;;;;;9.50;4.00;;;;;;;3.99;86.21;100508.66;5048425;28;20029;-64
2023/12/16 08:21:27;;;;;;;11.23;4.97;;;;;;;3.94;86.15;100520.88;5033222;28;20043;-65
2023/12/16 08:23:55;;;;;;;10.52;4.95;;;;;;;3.90;86.00;100518.44;5049765;28;20615;-64
2023/12/16 08:26:22;;;;;;;11.85;4.63;;;;;;;3.88;87.20;100520.25;5033050;28;20032;-65
2023/12/16 08:28:50;;;;;;;12.52;5.15;;;;;;;3.85;88.35;100516.03;5049310;28;20060;-64
2023/12/16 08:31:15;;;;;;;12.40;5.90;;;;;;;3.55;87.97;100471.66;5034616;28;20021;-66
2023/12/16 08:33:41;;;;;;;10.38;5.22;;;;;;;3.97;87.59;100525.06;5029843;28;20032;-65
2023/12/16 08:36:06;;;;;;;10.82;5.60;;;;;;;4.09;87.18;100534.91;5053788;28;20029;-64
2023/12/16 08:38:35;;;;;;;10.40;5.50;;;;;;;4.13;87.00;100535.63;5048924;28;20391;-64
2023/12/16 08:41:04;;;;;;;9.95;5.95;;;;;;;3.81;86.84;100488.72;5050865;28;20020;-65
2023/12/16 08:43:29;;;;;;;10.73;5.50;;;;;;;3.92;87.55;100542.41;5032850;28;20036;-65
2023/12/16 08:45:59;;;;;;;8.63;5.32;;;;;;;3.82;87.78;100517.00;5032217;28;20074;-65
2023/12/16 08:48:26;;;;;;;11.07;5.13;;;;;;;3.98;88.17;100526.72;5039999;28;20119;-64
2023/12/16 08:50:52;;;;;;;9.15;4.70;;;;;;;4.13;88.07;100544.19;5044017;28;20461;-65
2023/12/16 08:53:18;;;;;;;9.90;5.00;;;;;;;4.07;88.32;100552.16;5042484;28;20111;-64
2023/12/16 08:55:46;;;;;;;9.10;4.97;;;;;;;4.04;89.40;100558.22;5032281;28;20035;-65
2023/12/16 08:58:11;;;;;;;9.95;4.80;;;;;;;3.75;89.82;100510.38;5031932;28;20360;-65
2023/12/16 09:00:36;;;;;;;8.93;4.20;;;;;;;4.02;88.67;100554.06;5027552;28;20028;-66
2023/12/16 09:03:02;;;;;;;8.95;4.95;;;;;;;4.02;88.87;100557.44;5043611;28;20068;-66
2023/12/16 09:05:31;;;;;;;9.77;4.90;;;;;;;3.99;89.88;100554.97;5039814;28;20558;-63
2023/12/16 09:07:56;;;;;;;10.60;5.03;;;;;;;4.03;90.95;100566.88;5040994;28;20119;-65
2023/12/16 09:10:24;;;;;;;9.75;5.28;;;;;;;4.03;91.81;100568.59;5035386;28;20035;-67
2023/12/16 09:12:49;;;;;;;8.85;4.93;;;;;;;4.07;92.50;100562.44;5035261;28;20039;-65
2023/12/16 09:15:17;;;;;;;10.40;4.60;;;;;;;4.12;92.53;100570.00;5035013;28;20094;-64
2023/12/16 09:17:44;;;;;;;8.35;4.45;;;;;;;3.85;92.81;100526.31;5050562;28;20528;-66
2023/12/16 09:20:10;;;;;;;7.82;4.57;;;;;;;4.16;93.45;100580.13;5051294;28;21258;-63
2023/12/16 09:22:35;;;;;;;8.13;4.45;;;;;;;3.93;93.94;100528.66;5050158;28;20044;-64
2023/12/16 09:25:04;;;;;;;8.30;4.57;;;;;;;4.38;93.55;100597.34;5030659;28;20040;-65
2023/12/16 09:27:34;;;;;;;7.28;4.35;;;;;;;4.35;92.97;100584.63;5033007;28;20024;-63
2023/12/16 09:30:02;;;;;;;8.45;4.50;;;;;;;4.40;92.38;100583.53;5042699;28;20076;-65
2023/12/16 09:32:30;;;;;;;10.15;5.40;;;;;;;4.48;91.67;100592.72;5041254;28;20041;-64
2023/12/16 09:34:55;;;;;;;10.50;4.32;;;;;;;4.47;90.93;100583.31;5031528;28;20024;-63
2023/12/16 09:37:21;;;;;;;8.35;4.10;;;;;;;4.40;91.84;100585.28;5037410;28;20032;-65
2023/12/16 09:39:48;;;;;;;7.03;4.30;;;;;;;4.42;92.16;100594.63;5037236;28;20086;-65
2023/12/16 09:42:14;;;;;;;6.70;3.58;;;;;;;4.43;93.04;100596.31;5029413;28;20037;-64
2023/12/16 09:44:41;;;;;;;7.18;3.58;;;;;;;4.22;92.20;100546.44;5029225;28;20051;-66
2023/12/16 09:47:09;;;;;;;5.95;3.13;;;;;;;4.57;93.33;100595.78;5033692;28;20138;-64
2023/12/16 09:49:35;;;;;;;7.03;3.53;;;;;;;4.51;94.31;100600.31;5031098;28;20621;-65
2023/12/16 09:52:00;;;;;;;7.28;3.15;;;;;;;4.36;94.17;100587.13;5033659;28;20031;-65
2023/12/16 09:54:26;;;;;;;6.85;3.58;;;;;;;4.34;93.72;100578.59;5037643;28;20048;-65
2023/12/16 09:56:55;;;;;;;6.38;3.10;;;;;;;4.51;93.46;100588.28;5046326;28;20392;-65
2023/12/16 09:59:21;;;;;;;6.23;3.10;;;;;;;4.59;92.94;100588.00;5031547;28;20722;-65
2023/12/16 10:01:58;;;;;;;5.80;2.72;;;;;;;4.64;91.60;100583.50;5049516;28;20048;-65
2023/12/16 10:04:26;;;;;;;6.05;2.70;;;;;;;4.72;91.18;100590.94;5034006;28;20032;-65
2023/12/16 10:06:52;;;;;;;7.40;2.50;;;;;;;4.77;89.23;100589.88;5032336;28;20056;-65
2023/12/16 10:09:17;;;;;;;6.38;3.60;;;;;;;4.91;88.78;100589.34;5029938;28;20451;-66
2023/12/16 10:11:43;;;;;;;6.00;3.00;;;;;;;5.01;88.12;100587.22;5033475;28;20024;-65
2023/12/16 10:14:11;;;;;;;6.95;3.22;;;;;;;5.18;87.18;100589.13;5024559;28;20037;-65
2023/12/16 10:16:36;;;;;;;6.20;2.75;;;;;;;5.28;84.71;100594.78;5034712;28;20037;-66
2023/12/16 10:19:01;;;;;;;5.50;2.63;;;;;;;5.15;82.52;100545.44;5047659;28;20717;-65
2023/12/16 10:21:34;;;;;;;5.75;2.70;;;;;;;5.40;83.40;100586.50;5037930;28;20454;-66
2023/12/16 10:24:00;;;;;;;4.75;2.20;;;;;;;5.54;82.31;100591.94;5035779;28;20048;-64
2023/12/16 10:26:25;;;;;;;6.53;2.50;;;;;;;5.47;82.44;100579.34;5051269;28;20819;-66
2023/12/16 10:28:54;;;;;;;5.60;2.28;;;;;;;5.42;82.76;100574.41;5050184;28;20037;-66
2023/12/16 10:31:21;;;;;;;5.75;1.90;;;;;;;5.56;82.36;100577.22;5046694;28;20037;-65
2023/12/16 10:33:52;;;;;;;5.72;2.50;;;;;;;5.32;81.42;100521.50;5034346;28;20051;-65
2023/12/16 10:36:20;;;;;;;5.10;2.30;;;;;;;5.56;78.54;100566.91;5044939;28;20029;-65
2023/12/16 10:38:47;;;;;;;6.82;2.42;;;;;;;5.72;77.90;100550.78;5053821;28;20028;-66
2023/12/16 10:41:12;;;;;;;5.90;2.50;;;;;;;5.78;76.69;100571.16;5050041;28;20078;-65
2023/12/16 10:43:40;;;;;;;5.03;2.20;;;;;;;5.90;77.22;100564.63;5034480;28;20346;-66
2023/12/16 10:46:06;;;;;;;8.18;2.85;;;;;;;5.93;74.92;100562.75;5043184;28;20494;-65
2023/12/16 10:48:37;;;;;;;6.30;2.38;;;;;;;6.03;77.40;100559.81;5045892;28;20137;-65
2023/12/16 10:51:05;;;;;;;5.82;2.60;;;;;;;6.12;77.47;100549.88;5046173;28;20036;-65
2023/12/16 10:53:40;;;;;;;5.07;2.33;;;;;;;6.22;77.56;100554.63;5049243;28;20527;-67
2023/12/16 10:56:32;;;;;;;5.30;2.10;;;;;;;6.12;76.03;100565.38;5037777;28;20028;-68
2023/12/16 10:58:58;;;;;;;4.82;2.20;;;;;;;6.11;77.52;100558.53;5047744;28;21399;-64
2023/12/16 11:01:28;;;;;;;4.63;2.15;;;;;;;6.00;77.52;100549.59;5053981;28;20086;-67
2023/12/16 11:04:06;;;;;;;7.25;2.30;;;;;;;6.21;77.69;100550.41;5053782;28;20738;-65
2023/12/16 11:06:53;;;;;;;6.05;2.38;;;;;;;6.31;77.19;100549.88;5038127;28;20032;-67
2023/12/16 11:09:19;;;;;;;7.18;2.95;;;;;;;6.32;76.61;100538.66;5054075;28;20129;-67
2023/12/16 11:11:47;;;;;;;8.10;2.65;;;;;;;6.30;75.45;100542.22;5048793;28;20021;-67
2023/12/16 11:14:14;;;;;;;5.63;2.53;;;;;;;6.45;75.10;100543.25;5041258;28;20033;-67
2023/12/16 11:16:58;;;;;;;5.75;2.72;;;;;;;6.55;73.70;100536.72;5061898;28;20028;-66
2023/12/16 11:19:26;;;;;;;4.47;2.00;;;;;;;6.67;72.66;100535.34;5047281;28;20044;-67
2023/12/16 11:21:52;;;;;;;4.77;2.40;;;;;;;6.71;71.40;100534.28;5047426;28;20040;-67
2023/12/16 11:24:17;;;;;;;4.80;1.85;;;;;;;6.74;70.03;100528.97;5031459;28;20024;-67
2023/12/16 11:26:43;;;;;;;5.55;2.03;;;;;;;6.78;70.26;100516.72;5029523;28;20035;-66
2023/12/16 11:29:08;;;;;;;5.15;2.17;;;;;;;6.95;69.85;100523.66;5048518;28;20055;-66